Accueil
METAR-TAF:

METAR-TAF

Aéroports :

Aéroport international David IV de Koutaïssi

Koutaïssi, Géorgie

latitude: 42-10-35N, longitude: 042-28-57E, altitude: 68 m

Observation

Le bulletin a été fait il y a 17 minutes, à 04:30 UTC
Vent 12 kt de est
Température 8°C
Humidité 57%
Pression 1019 hPa
Visibilité 10 km ou plus
pas de nuages en-dessous de 1500 mètres et pas de cumulonimbus.

METAR: UGKO 230430Z 08012KT CAVOK 08/00 Q1019 NOSIG

Heure: 08:47 (04:47 UTC)

Prévision

Le bulletin a été fait il y a 5 heures et 47 minutes, à 23:00 UTC
Prévision valable du 23 à 00 UTC au 23 à 24 UTC
Vent 16 kt de est
Visibilité 10 km ou plus
pas de nuages en-dessous de 1500 mètres et pas de cumulonimbus.
Temporairement
du 23 à 00 UTC au 23 à 03 UTC
Vent 6 kt de est
Evoluant progressivement
du 23 à 10 UTC au 23 à 12 UTC
Vent 6 kt de est

TAF: UGKO 222300Z 2300/2324 08016KT CAVOK TX17/2311Z TN04/2324Z TEMPO 2300/2303 09006KT BECMG 2310/2312 09006KT

Observations et prévisions météorologiques de plus de 4000 aéroports (messages METAR et TAF).

Les stations disponibles sont représentées par des disques jaunes et rouges sur la carte.

Passer la souris dessus pour voir le nom de la station.

Cliquer dessus pour voir les observations et prévisions météorologiques.

Pour changer de carte: cliquez sur les boutons verts avec une croix noire pour zoomer, sur le bouton vert avec un tiret pour effectuer un zoom arrière, ou sur les flèches vertes pour les cartes adjacentes.


METAR-TAF: